Time;durP1;ratioP1;P1;durP2;ratioP2;P2;SDS_P1;SDS_P2;PMS_P1;PMS_P2;Temp;Humidity;BMP_temperature;BMP_pressure;BME280_temperature;BME280_humidity;BME280_pressure;Samples;Min_cycle;Max_cycle;Signal;HPM_P1;HPM_P2
2021/08/02 00:00:39;;;;;;;24.33;21.73;;;15.60;99.90;;;;;;5058696;28;20471;-68
2021/08/02 00:03:14;;;;;;;22.27;20.47;;;15.50;99.90;;;;;;5056111;28;20451;-68
2021/08/02 00:05:47;;;;;;;22.33;20.43;;;15.40;99.90;;;;;;5057463;28;20550;-67
2021/08/02 00:08:20;;;;;;;23.60;21.30;;;15.40;99.90;;;;;;5062965;28;20459;-68
2021/08/02 00:10:50;;;;;;;25.77;23.17;;;15.30;99.90;;;;;;5056379;28;21011;-67
2021/08/02 00:13:29;;;;;;;24.07;21.77;;;15.30;99.90;;;;;;5060748;28;20458;-68
2021/08/02 00:15:58;;;;;;;24.53;22.33;;;15.30;99.90;;;;;;5063129;28;20471;-67
2021/08/02 00:18:26;;;;;;;22.97;20.73;;;15.20;99.90;;;;;;5054407;28;20490;-68
2021/08/02 00:20:56;;;;;;;22.60;20.50;;;15.20;99.90;;;;;;5061086;28;20481;-68
2021/08/02 00:23:25;;;;;;;23.40;20.33;;;15.30;99.90;;;;;;5058639;28;20447;-70
2021/08/02 00:25:52;;;;;;;22.87;20.77;;;15.30;99.90;;;;;;5064948;28;21071;-68
2021/08/02 00:28:20;;;;;;;22.47;20.57;;;15.30;99.90;;;;;;5066890;28;20443;-69
2021/08/02 00:30:48;;;;;;;23.00;20.43;;;15.40;99.90;;;;;;5057003;28;20467;-68
2021/08/02 00:33:15;;;;;;;23.30;21.20;;;15.40;99.90;;;;;;5056667;28;20943;-67
2021/08/02 00:35:54;;;;;;;22.10;20.10;;;15.50;99.90;;;;;;5060355;28;20528;-68
2021/08/02 00:38:29;;;;;;;24.83;22.53;;;15.40;99.90;;;;;;5056389;28;20839;-68
2021/08/02 00:41:19;;;;;;;23.53;21.60;;;15.50;99.90;;;;;;5060070;28;20457;-68
2021/08/02 00:44:23;;;;;;;22.30;20.50;;;15.50;99.90;;;;;;5055639;28;20938;-71
2021/08/02 00:46:56;;;;;;;23.17;21.10;;;15.60;99.90;;;;;;5042330;28;20471;-68
2021/08/02 00:49:26;;;;;;;21.67;19.67;;;15.50;99.90;;;;;;5055875;28;20816;-68
2021/08/02 00:51:57;;;;;;;23.07;20.83;;;15.50;99.90;;;;;;5058330;28;20456;-67
2021/08/02 00:54:27;;;;;;;22.50;20.50;;;15.60;99.90;;;;;;5056861;28;20455;-67
2021/08/02 00:56:59;;;;;;;22.03;20.03;;;15.60;99.90;;;;;;5054917;28;20468;-70
2021/08/02 00:59:28;;;;;;;23.07;20.80;;;15.60;99.90;;;;;;5056379;28;20494;-69
2021/08/02 01:01:57;;;;;;;22.47;20.37;;;15.70;99.90;;;;;;5059633;28;20457;-68
2021/08/02 01:04:25;;;;;;;22.23;19.90;;;15.80;99.90;;;;;;5059736;28;20957;-68
2021/08/02 01:06:53;;;;;;;21.57;19.50;;;15.70;99.90;;;;;;5051008;28;20541;-67
2021/08/02 01:09:22;;;;;;;20.87;19.17;;;15.80;99.90;;;;;;5054922;28;20464;-68
2021/08/02 01:11:53;;;;;;;21.43;19.53;;;15.80;99.90;;;;;;5056147;28;20456;-68
2021/08/02 01:14:21;;;;;;;20.83;18.73;;;15.90;99.90;;;;;;5054860;28;20451;-71
2021/08/02 01:16:51;;;;;;;20.93;19.00;;;15.90;99.90;;;;;;5064588;28;20498;-68
2021/08/02 01:19:19;;;;;;;21.00;19.30;;;15.90;99.90;;;;;;5055065;28;20483;-68
2021/08/02 01:21:49;;;;;;;20.33;18.50;;;15.80;99.90;;;;;;5053317;28;20538;-70
2021/08/02 01:24:18;;;;;;;22.07;20.07;;;15.80;99.90;;;;;;5057828;28;20456;-67
2021/08/02 01:27:24;;;;;;;20.43;18.83;;;15.80;99.90;;;;;;5058789;28;20459;-68
2021/08/02 01:30:27;;;;;;;18.63;17.13;;;15.90;99.90;;;;;;5050932;28;20459;-68
2021/08/02 01:32:54;;;;;;;21.13;19.43;;;15.90;99.90;;;;;;5050993;28;20454;-70
2021/08/02 01:35:22;;;;;;;19.60;18.10;;;15.90;99.90;;;;;;5062967;28;20462;-69
2021/08/02 01:37:50;;;;;;;20.00;18.20;;;15.80;99.90;;;;;;5060867;28;20558;-70
2021/08/02 01:40:19;;;;;;;19.23;17.23;;;15.80;99.90;;;;;;5051152;28;20997;-67
2021/08/02 01:42:46;;;;;;;19.23;17.60;;;15.80;99.90;;;;;;5054045;28;20460;-67
2021/08/02 01:45:14;;;;;;;19.80;18.20;;;15.70;99.90;;;;;;5055396;28;20474;-68
2021/08/02 01:48:04;;;;;;;19.97;18.37;;;15.70;99.90;;;;;;5056778;28;21045;-70
2021/08/02 01:50:43;;;;;;;19.67;17.97;;;15.80;99.90;;;;;;5056624;28;20471;-68
2021/08/02 01:53:18;;;;;;;19.90;17.87;;;15.80;99.90;;;;;;5056808;28;20460;-67
2021/08/02 01:55:51;;;;;;;18.80;17.17;;;15.80;99.90;;;;;;5066650;28;20453;-67
2021/08/02 01:58:19;;;;;;;20.87;18.90;;;15.70;99.90;;;;;;5057042;28;20460;-70
2021/08/02 02:00:49;;;;;;;18.70;17.17;;;15.80;99.90;;;;;;5060021;28;20450;-70
2021/08/02 02:03:21;;;;;;;17.90;16.40;;;15.70;99.90;;;;;;5055308;28;20471;-70
2021/08/02 02:05:57;;;;;;;17.77;16.37;;;15.70;99.90;;;;;;5054349;28;20459;-68
2021/08/02 02:08:29;;;;;;;17.20;15.90;;;15.60;99.90;;;;;;5053946;28;20462;-67
2021/08/02 02:11:01;;;;;;;16.03;14.93;;;15.50;99.90;;;;;;5055278;28;20942;-68
2021/08/02 02:13:31;;;;;;;16.77;15.30;;;15.50;99.90;;;;;;5055661;28;20471;-68
2021/08/02 02:16:00;;;;;;;17.43;16.03;;;15.50;99.90;;;;;;5057671;28;20984;-68
2021/08/02 02:18:29;;;;;;;16.67;15.10;;;15.40;99.90;;;;;;5055639;28;20484;-66
2021/08/02 02:21:00;;;;;;;17.07;15.83;;;15.40;99.90;;;;;;5054788;28;20459;-68
2021/08/02 02:23:28;;;;;;;16.80;15.30;;;15.40;99.90;;;;;;5053627;28;20452;-70
2021/08/02 02:25:58;;;;;;;16.93;15.53;;;15.40;99.90;;;;;;5056846;28;20459;-68
2021/08/02 02:28:25;;;;;;;17.90;16.40;;;15.30;99.90;;;;;;5054656;28;20478;-68
2021/08/02 02:30:56;;;;;;;17.60;15.97;;;15.30;99.90;;;;;;5055476;28;20514;-66
2021/08/02 02:33:24;;;;;;;16.67;15.40;;;15.40;99.90;;;;;;5053564;28;20459;-68
2021/08/02 02:35:53;;;;;;;18.03;16.40;;;15.30;99.90;;;;;;5052824;28;20469;-67
2021/08/02 02:38:21;;;;;;;16.50;15.20;;;15.30;99.90;;;;;;5055136;28;20460;-70
2021/08/02 02:40:49;;;;;;;17.30;15.63;;;15.30;99.90;;;;;;5055645;28;20451;-68
2021/08/02 02:43:18;;;;;;;17.13;15.60;;;15.20;99.90;;;;;;5056716;28;20547;-68
2021/08/02 02:45:47;;;;;;;16.33;15.00;;;15.30;99.90;;;;;;5050632;28;20591;-70
2021/08/02 02:48:16;;;;;;;17.03;15.50;;;15.30;99.90;;;;;;5054994;28;20454;-68
2021/08/02 02:50:48;;;;;;;16.70;15.60;;;15.40;99.90;;;;;;5054501;28;20454;-68
2021/08/02 02:53:18;;;;;;;16.73;15.17;;;15.40;99.90;;;;;;5048290;28;20460;-69
2021/08/02 02:55:47;;;;;;;17.07;15.80;;;15.30;99.90;;;;;;5055983;28;20466;-67
2021/08/02 02:58:14;;;;;;;16.63;15.53;;;15.30;99.90;;;;;;5054472;28;20464;-69
2021/08/02 03:00:44;;;;;;;19.70;17.60;;;15.40;99.90;;;;;;5056542;28;20502;-67
2021/08/02 03:03:16;;;;;;;16.77;15.47;;;15.50;99.90;;;;;;5056092;28;20444;-68
2021/08/02 03:05:43;;;;;;;18.23;16.80;;;15.40;99.90;;;;;;5056658;28;20463;-68
2021/08/02 03:08:12;;;;;;;17.03;15.47;;;15.40;99.90;;;;;;5056850;28;20489;-67
2021/08/02 03:10:40;;;;;;;17.30;16.03;;;15.30;99.90;;;;;;5054745;28;20458;-69
2021/08/02 03:13:10;;;;;;;17.57;16.10;;;15.20;99.90;;;;;;5055955;28;20551;-70
2021/08/02 03:15:42;;;;;;;17.50;16.17;;;15.30;99.90;;;;;;5055356;28;20454;-68
2021/08/02 03:18:12;;;;;;;15.83;14.73;;;15.20;99.90;;;;;;5059191;28;20538;-68
2021/08/02 03:20:41;;;;;;;17.67;16.47;;;15.20;99.90;;;;;;5056051;28;20495;-67
2021/08/02 03:23:14;;;;;;;17.80;15.90;;;15.40;99.90;;;;;;5058064;28;20517;-68
2021/08/02 03:25:45;;;;;;;17.83;16.00;;;15.30;99.90;;;;;;5054083;28;20526;-68
2021/08/02 03:28:19;;;;;;;17.93;16.33;;;15.30;99.90;;;;;;5052129;28;20471;-68
2021/08/02 03:30:50;;;;;;;17.07;15.87;;;15.30;99.90;;;;;;5066275;28;20457;-69
2021/08/02 03:33:24;;;;;;;18.73;17.23;;;15.40;99.90;;;;;;5061358;28;20458;-69
2021/08/02 03:35:56;;;;;;;16.47;14.83;;;15.40;99.90;;;;;;5060292;28;20447;-68
2021/08/02 03:38:24;;;;;;;19.30;17.27;;;15.40;99.90;;;;;;5062130;28;20474;-68
2021/08/02 03:40:54;;;;;;;18.27;16.43;;;15.30;99.90;;;;;;5053283;28;20525;-70
2021/08/02 03:43:21;;;;;;;17.57;16.10;;;15.40;99.90;;;;;;5058896;28;20495;-68
2021/08/02 03:45:48;;;;;;;15.73;14.73;;;15.40;99.90;;;;;;5066378;28;20486;-68
2021/08/02 03:48:18;;;;;;;18.47;16.90;;;15.40;99.90;;;;;;5058851;28;20464;-69
2021/08/02 03:50:47;;;;;;;17.20;16.00;;;15.40;99.90;;;;;;5061222;28;20464;-69
2021/08/02 03:53:15;;;;;;;18.10;16.47;;;15.40;99.90;;;;;;5054409;28;20471;-67
2021/08/02 03:55:45;;;;;;;23.23;17.73;;;15.30;99.90;;;;;;5061829;28;20538;-68
2021/08/02 03:58:12;;;;;;;20.07;16.20;;;15.20;99.90;;;;;;5058761;28;20461;-68
2021/08/02 04:00:39;;;;;;;19.53;17.57;;;15.30;99.90;;;;;;5062836;28;20471;-69
2021/08/02 04:03:07;;;;;;;17.03;15.70;;;15.30;99.90;;;;;;5057933;28;20459;-68
2021/08/02 04:05:34;;;;;;;19.67;18.13;;;15.30;99.90;;;;;;5052565;28;20554;-68
2021/08/02 04:08:02;;;;;;;19.13;17.30;;;15.10;99.90;;;;;;5061465;28;20451;-68
2021/08/02 04:10:30;;;;;;;19.30;17.50;;;15.10;99.90;;;;;;5049442;28;21026;-70
2021/08/02 04:12:58;;;;;;;18.50;17.20;;;15.00;99.90;;;;;;5055271;28;20942;-70
2021/08/02 04:15:26;;;;;;;19.40;17.40;;;15.00;99.90;;;;;;5055100;28;20460;-68
2021/08/02 04:17:53;;;;;;;20.27;18.40;;;15.00;99.90;;;;;;5052466;28;20506;-68
2021/08/02 04:20:19;;;;;;;18.27;16.87;;;15.10;99.90;;;;;;5057146;28;20479;-67
2021/08/02 04:22:48;;;;;;;17.67;16.33;;;15.20;99.90;;;;;;5051290;28;20463;-70
2021/08/02 04:25:19;;;;;;;16.77;15.63;;;15.30;99.90;;;;;;5057447;28;20460;-68
2021/08/02 04:27:45;;;;;;;16.80;15.30;;;15.40;99.90;;;;;;5053909;28;20554;-70
2021/08/02 04:30:13;;;;;;;17.67;15.80;;;15.40;99.90;;;;;;5062158;28;20458;-67
2021/08/02 04:32:46;;;;;;;16.77;15.47;;;15.40;99.90;;;;;;5055729;28;20447;-68
2021/08/02 04:35:14;;;;;;;18.33;16.60;;;15.40;99.90;;;;;;5061731;28;20790;-68
2021/08/02 04:37:40;;;;;;;17.57;16.40;;;15.50;99.90;;;;;;5059843;28;20459;-69
2021/08/02 04:40:09;;;;;;;16.60;15.37;;;15.50;99.90;;;;;;5059494;28;20497;-68
2021/08/02 04:42:38;;;;;;;17.73;15.90;;;15.50;99.90;;;;;;5059510;28;20463;-68
2021/08/02 04:45:07;;;;;;;17.70;15.93;;;15.40;99.90;;;;;;5054782;28;20478;-68
2021/08/02 04:47:35;;;;;;;17.73;16.33;;;15.40;99.90;;;;;;5053551;28;20463;-69
2021/08/02 04:50:03;;;;;;;18.13;16.60;;;15.50;99.90;;;;;;5061583;28;20483;-68
2021/08/02 04:52:30;;;;;;;17.77;16.40;;;15.50;99.90;;;;;;5059966;28;20459;-68
2021/08/02 04:54:57;;;;;;;18.67;17.03;;;15.50;99.90;;;;;;5057995;28;20456;-68
2021/08/02 04:57:24;;;;;;;18.93;17.27;;;15.40;99.90;;;;;;5058609;28;20979;-68
2021/08/02 04:59:52;;;;;;;18.33;16.60;;;15.20;99.90;;;;;;5054675;28;20485;-68
2021/08/02 05:02:19;;;;;;;18.17;16.77;;;15.30;99.90;;;;;;5065909;28;20455;-70
2021/08/02 05:04:47;;;;;;;18.20;16.60;;;15.40;99.90;;;;;;5055933;28;20486;-68
2021/08/02 05:07:14;;;;;;;17.60;16.30;;;15.50;99.90;;;;;;5055245;28;20557;-69
2021/08/02 05:09:41;;;;;;;18.30;16.97;;;15.60;99.90;;;;;;5058802;28;20466;-68
2021/08/02 05:12:08;;;;;;;17.73;16.27;;;15.70;99.90;;;;;;5058747;28;20462;-68
2021/08/02 05:14:35;;;;;;;17.50;16.30;;;15.80;99.90;;;;;;5059951;28;20459;-68
2021/08/02 05:17:03;;;;;;;18.37;16.87;;;15.70;99.90;;;;;;5058476;28;20476;-70
2021/08/02 05:19:31;;;;;;;17.30;16.00;;;15.80;99.90;;;;;;5059356;28;20478;-68
2021/08/02 05:21:59;;;;;;;18.13;16.37;;;15.90;99.90;;;;;;5055979;28;20466;-72
2021/08/02 05:24:26;;;;;;;17.67;16.33;;;15.90;99.90;;;;;;5060488;28;20474;-68
2021/08/02 05:26:54;;;;;;;18.47;16.40;;;16.10;99.90;;;;;;5057522;28;20460;-68
2021/08/02 05:29:22;;;;;;;18.33;16.70;;;16.10;99.90;;;;;;5060635;28;20451;-68
2021/08/02 05:31:49;;;;;;;19.33;17.17;;;16.20;99.90;;;;;;5056855;28;20460;-70
2021/08/02 05:34:19;;;;;;;18.07;16.67;;;16.30;99.90;;;;;;5060706;28;20457;-70
2021/08/02 05:36:46;;;;;;;19.27;17.93;;;16.40;99.90;;;;;;5050060;28;20459;-68
2021/08/02 05:39:13;;;;;;;19.57;18.10;;;16.40;99.90;;;;;;5064257;28;20828;-70
2021/08/02 05:41:40;;;;;;;17.70;16.40;;;16.30;99.90;;;;;;5057854;28;21033;-68
2021/08/02 05:44:06;;;;;;;19.37;17.80;;;16.40;99.90;;;;;;5048196;28;20448;-68
2021/08/02 05:46:33;;;;;;;19.50;18.13;;;16.40;99.90;;;;;;5050116;28;20495;-71
2021/08/02 05:49:00;;;;;;;19.13;17.73;;;16.50;99.90;;;;;;5055766;28;20459;-72
2021/08/02 05:51:29;;;;;;;20.13;18.40;;;16.50;99.90;;;;;;5052357;28;20460;-68
2021/08/02 05:53:56;;;;;;;18.77;17.47;;;16.50;99.90;;;;;;5051922;28;20946;-69
2021/08/02 05:56:23;;;;;;;21.03;19.10;;;16.50;99.90;;;;;;5059101;28;20461;-67
2021/08/02 05:58:49;;;;;;;20.07;18.13;;;16.50;99.90;;;;;;5048268;28;20466;-69
2021/08/02 06:01:16;;;;;;;18.17;16.87;;;16.70;99.90;;;;;;5058570;28;20486;-68
2021/08/02 06:03:43;;;;;;;18.60;17.03;;;16.80;99.90;;;;;;5053963;28;20474;-69
2021/08/02 06:06:11;;;;;;;17.97;16.67;;;16.90;99.90;;;;;;5048165;28;20465;-68
2021/08/02 06:08:40;;;;;;;18.67;17.13;;;17.00;99.90;;;;;;5053390;28;20467;-71
2021/08/02 06:11:07;;;;;;;18.10;16.83;;;17.10;99.90;;;;;;5048955;28;20468;-69
2021/08/02 06:13:34;;;;;;;19.07;17.13;;;17.00;99.90;;;;;;5053246;28;20451;-68
2021/08/02 06:16:01;;;;;;;18.30;16.90;;;17.00;99.90;;;;;;5052719;28;20487;-68
2021/08/02 06:18:28;;;;;;;18.43;17.13;;;17.00;99.90;;;;;;5052570;28;20466;-68
2021/08/02 06:20:55;;;;;;;18.03;16.70;;;17.00;99.90;;;;;;5055969;28;20491;-68
2021/08/02 06:23:22;;;;;;;17.57;16.37;;;17.10;99.90;;;;;;5048075;28;20456;-70
2021/08/02 06:25:51;;;;;;;21.87;15.70;;;17.40;99.90;;;;;;5043326;28;20759;-68
2021/08/02 06:28:17;;;;;;;18.33;16.70;;;17.60;99.90;;;;;;5057103;28;20892;-68
2021/08/02 06:30:44;;;;;;;17.53;16.33;;;17.80;99.90;;;;;;5054921;28;20811;-68
2021/08/02 06:33:11;;;;;;;17.60;16.40;;;17.90;99.90;;;;;;5052900;28;20985;-70
2021/08/02 06:35:39;;;;;;;17.93;16.33;;;17.80;99.90;;;;;;5052557;28;20465;-68
2021/08/02 06:38:06;;;;;;;18.10;16.73;;;17.90;99.90;;;;;;5050949;28;20462;-68
2021/08/02 06:40:32;;;;;;;19.87;17.77;;;18.00;99.90;;;;;;5050962;28;20491;-69
2021/08/02 06:43:01;;;;;;;17.57;16.30;;;18.10;99.90;;;;;;5050881;28;20578;-69
2021/08/02 06:45:29;;;;;;;17.70;16.40;;;17.90;99.90;;;;;;5050940;28;20474;-70
2021/08/02 06:47:56;;;;;;;17.33;15.70;;;18.00;99.90;;;;;;5055286;28;20965;-68
2021/08/02 06:50:24;;;;;;;16.73;15.67;;;18.10;99.90;;;;;;5051580;28;20476;-70
2021/08/02 06:52:52;;;;;;;18.23;17.00;;;18.00;99.90;;;;;;5051189;28;20466;-68
2021/08/02 06:55:19;;;;;;;17.40;16.20;;;18.00;99.90;;;;;;5055196;28;20513;-68
2021/08/02 06:57:46;;;;;;;17.83;16.50;;;18.00;99.90;;;;;;5054100;28;20460;-68
2021/08/02 07:00:16;;;;;;;18.07;16.40;;;18.00;99.90;;;;;;5054395;28;20487;-71
2021/08/02 07:02:43;;;;;;;17.00;15.80;;;18.00;99.90;;;;;;5052799;28;20466;-68
2021/08/02 07:05:10;;;;;;;19.20;16.00;;;18.00;99.90;;;;;;5047685;28;20819;-68
2021/08/02 07:07:37;;;;;;;17.40;16.00;;;18.00;99.90;;;;;;5049568;28;20466;-68
2021/08/02 07:10:05;;;;;;;16.83;15.83;;;17.90;99.90;;;;;;5046915;28;20699;-68
2021/08/02 07:12:32;;;;;;;17.90;16.50;;;17.90;99.90;;;;;;5051043;28;20459;-68
2021/08/02 07:14:59;;;;;;;16.10;15.00;;;17.80;99.90;;;;;;5050459;28;20474;-68
2021/08/02 07:17:28;;;;;;;16.17;15.10;;;17.70;99.90;;;;;;5057613;28;20534;-71
2021/08/02 07:19:55;;;;;;;17.00;15.60;;;17.70;99.90;;;;;;5046510;28;20460;-71
2021/08/02 07:22:22;;;;;;;16.30;15.00;;;17.80;99.90;;;;;;5051971;28;20565;-69
2021/08/02 07:24:49;;;;;;;14.87;13.80;;;17.80;99.90;;;;;;5056316;28;20549;-68
2021/08/02 07:27:16;;;;;;;16.43;15.20;;;17.90;99.90;;;;;;5051738;28;20464;-70
2021/08/02 07:29:43;;;;;;;14.50;13.80;;;18.00;99.90;;;;;;5051645;28;20459;-68
2021/08/02 07:32:09;;;;;;;13.80;13.10;;;18.10;99.90;;;;;;5056811;28;20455;-69
2021/08/02 07:34:38;;;;;;;16.20;15.00;;;18.00;99.90;;;;;;5055120;28;20542;-71
2021/08/02 07:37:05;;;;;;;15.13;14.13;;;17.70;99.90;;;;;;5044706;28;20471;-68
2021/08/02 07:39:32;;;;;;;15.50;14.30;;;17.50;99.90;;;;;;5051680;28;20979;-68
2021/08/02 07:41:59;;;;;;;15.67;14.47;;;17.30;99.90;;;;;;5054666;28;20483;-71
2021/08/02 07:44:26;;;;;;;16.40;14.70;;;17.40;99.90;;;;;;5051590;28;20468;-68
2021/08/02 07:46:53;;;;;;;16.30;15.40;;;17.20;99.90;;;;;;5051173;28;22541;-71
2021/08/02 07:49:20;;;;;;;16.43;15.40;;;17.10;99.90;;;;;;5053269;28;20858;-68
2021/08/02 07:51:48;;;;;;;17.00;15.77;;;16.90;99.90;;;;;;5046588;28;20453;-68
2021/08/02 07:54:16;;;;;;;16.57;15.03;;;16.80;99.90;;;;;;5050771;28;20470;-67
2021/08/02 07:56:43;;;;;;;14.90;14.00;;;16.80;99.90;;;;;;5051996;28;20455;-68
2021/08/02 07:59:10;;;;;;;13.73;12.57;;;16.70;99.90;;;;;;5057119;28;20456;-67
2021/08/02 08:01:37;;;;;;;14.10;13.20;;;16.70;99.90;;;;;;5053729;28;20498;-71
2021/08/02 08:04:04;;;;;;;13.50;12.80;;;16.90;99.90;;;;;;5051936;28;20474;-67
2021/08/02 08:06:31;;;;;;;13.43;12.67;;;17.00;99.90;;;;;;5053548;28;20460;-70
2021/08/02 08:09:01;;;;;;;13.60;12.90;;;17.20;99.90;;;;;;5052078;28;20471;-70
2021/08/02 08:11:28;;;;;;;13.30;12.40;;;17.40;99.90;;;;;;5054572;28;20807;-68
2021/08/02 08:13:54;;;;;;;13.70;13.10;;;17.60;99.90;;;;;;5051722;28;20464;-67
2021/08/02 08:16:21;;;;;;;13.60;13.00;;;17.90;99.90;;;;;;5058244;28;20485;-68
2021/08/02 08:18:48;;;;;;;14.07;13.37;;;18.20;99.90;;;;;;5049032;28;20957;-69
2021/08/02 08:21:15;;;;;;;13.50;12.90;;;18.50;99.90;;;;;;5053523;28;20505;-70
2021/08/02 08:23:42;;;;;;;17.33;16.23;;;18.60;99.90;;;;;;5058785;28;21010;-67
2021/08/02 08:26:12;;;;;;;15.67;14.73;;;18.80;99.90;;;;;;5055042;28;20456;-67
2021/08/02 08:28:39;;;;;;;14.17;13.30;;;18.70;99.90;;;;;;5057317;28;20815;-68
2021/08/02 08:31:06;;;;;;;14.23;13.43;;;18.70;99.90;;;;;;5051763;28;20823;-69
2021/08/02 08:33:34;;;;;;;14.30;13.60;;;18.80;99.90;;;;;;5056955;28;20466;-70
2021/08/02 08:36:01;;;;;;;15.00;14.00;;;18.90;99.90;;;;;;5053792;28;20474;-67
2021/08/02 08:38:28;;;;;;;14.90;13.80;;;18.80;99.90;;;;;;5055314;28;20462;-68
2021/08/02 08:40:56;;;;;;;15.20;14.23;;;18.70;99.90;;;;;;5056851;28;20498;-67
2021/08/02 08:43:24;;;;;;;14.67;13.87;;;18.40;99.90;;;;;;5056081;28;20471;-68
2021/08/02 08:45:51;;;;;;;15.73;14.33;;;18.50;99.90;;;;;;5056584;28;20484;-68
2021/08/02 08:48:18;;;;;;;14.80;13.90;;;18.70;99.90;;;;;;5053127;28;20456;-69
2021/08/02 08:50:45;;;;;;;15.23;14.20;;;18.80;99.90;;;;;;5058268;28;20463;-67
2021/08/02 08:53:16;;;;;;;15.40;14.10;;;18.80;99.90;;;;;;5055902;28;20960;-67
2021/08/02 08:55:43;;;;;;;14.83;13.77;;;18.90;99.90;;;;;;5056161;28;20482;-67
2021/08/02 08:58:11;;;;;;;15.90;13.30;;;19.20;99.90;;;;;;5054538;28;20463;-66
2021/08/02 09:00:41;;;;;;;14.63;13.57;;;19.20;99.90;;;;;;5059327;28;20476;-67
2021/08/02 09:03:12;;;;;;;14.30;13.47;;;19.50;99.90;;;;;;5055692;28;20470;-66
2021/08/02 09:05:39;;;;;;;14.57;13.77;;;19.80;99.90;;;;;;5054625;28;20459;-68
2021/08/02 09:08:07;;;;;;;13.73;13.03;;;20.10;99.90;;;;;;5055809;28;20451;-67
2021/08/02 09:10:35;;;;;;;14.77;13.87;;;20.10;99.90;;;;;;5053873;28;20460;-67
2021/08/02 09:13:03;;;;;;;15.33;14.43;;;20.10;99.90;;;;;;5055513;28;20460;-67
2021/08/02 09:15:36;;;;;;;15.23;14.10;;;20.20;99.90;;;;;;5050082;28;20460;-67
2021/08/02 09:18:08;;;;;;;15.30;14.20;;;20.10;99.90;;;;;;5051212;28;20459;-67
2021/08/02 09:20:36;;;;;;;14.50;13.50;;;20.10;99.90;;;;;;5046117;28;20548;-68
2021/08/02 09:23:09;;;;;;;14.83;13.73;;;20.30;99.90;;;;;;5061946;28;20460;-68
2021/08/02 09:25:45;;;;;;;15.17;14.07;;;20.80;99.90;;;;;;5058019;28;20462;-67
2021/08/02 09:28:15;;;;;;;16.07;14.87;;;21.00;99.90;;;;;;5054364;28;20500;-69
2021/08/02 09:30:54;;;;;;;15.17;13.80;;;21.20;99.90;;;;;;5053761;28;20460;-67
2021/08/02 09:33:23;;;;;;;15.30;14.30;;;21.60;99.90;;;;;;5054421;28;20467;-67
2021/08/02 09:35:52;;;;;;;15.70;14.60;;;21.40;99.90;;;;;;5058139;28;21065;-67
2021/08/02 09:38:21;;;;;;;16.67;15.33;;;20.90;99.90;;;;;;5049679;28;20459;-66
2021/08/02 09:40:49;;;;;;;15.53;14.63;;;20.10;99.90;;;;;;5051270;28;20466;-67
2021/08/02 09:43:20;;;;;;;17.67;16.57;;;19.60;99.90;;;;;;5051194;28;20463;-67
2021/08/02 09:45:48;;;;;;;16.20;15.30;;;19.30;99.90;;;;;;5056532;28;20537;-67
2021/08/02 09:48:17;;;;;;;16.43;15.37;;;18.90;99.90;;;;;;5050367;28;20835;-67
2021/08/02 09:50:46;;;;;;;17.17;15.87;;;18.50;99.90;;;;;;5056140;28;20475;-67
2021/08/02 09:53:15;;;;;;;16.60;15.57;;;18.20;99.90;;;;;;5054114;28;20969;-67
2021/08/02 09:55:43;;;;;;;16.80;15.60;;;17.80;99.90;;;;;;5056405;28;20466;-67
2021/08/02 09:58:11;;;;;;;17.93;16.20;;;17.80;99.90;;;;;;5052613;28;20463;-69
2021/08/02 10:00:39;;;;;;;15.90;14.80;;;17.50;99.90;;;;;;5055165;28;20459;-66
2021/08/02 10:03:07;;;;;;;16.10;15.13;;;17.70;99.90;;;;;;5045553;28;20961;-68
2021/08/02 10:05:37;;;;;;;17.00;15.80;;;17.60;99.90;;;;;;5053951;28;20494;-67
2021/08/02 10:08:06;;;;;;;15.23;14.43;;;17.30;99.90;;;;;;5056601;28;20481;-67
2021/08/02 10:10:33;;;;;;;15.13;14.00;;;17.40;99.90;;;;;;5055463;28;20804;-68
2021/08/02 10:13:00;;;;;;;16.20;14.80;;;17.60;99.90;;;;;;5056145;28;21069;-67
2021/08/02 10:15:29;;;;;;;16.13;15.23;;;17.50;99.90;;;;;;5052125;28;20456;-67
2021/08/02 10:17:58;;;;;;;16.27;15.30;;;17.50;99.90;;;;;;5049117;28;20456;-67
2021/08/02 10:20:28;;;;;;;15.37;14.47;;;17.70;99.90;;;;;;5048330;28;20470;-67
2021/08/02 10:22:57;;;;;;;14.70;13.80;;;18.10;99.90;;;;;;5046483;28;21004;-67
2021/08/02 10:25:37;;;;;;;15.03;14.10;;;18.30;99.90;;;;;;5053865;28;20487;-66
2021/08/02 10:28:12;;;;;;;14.77;13.97;;;18.50;99.90;;;;;;5052342;28;20455;-66
2021/08/02 10:30:40;;;;;;;15.03;14.13;;;18.80;99.90;;;;;;5054714;28;20463;-66
2021/08/02 10:33:07;;;;;;;14.43;13.63;;;19.00;99.90;;;;;;5051765;28;20463;-67
2021/08/02 10:35:40;;;;;;;14.63;13.93;;;19.30;99.90;;;;;;5047413;28;20836;-66
2021/08/02 10:38:08;;;;;;;15.00;13.97;;;19.50;99.90;;;;;;5051233;28;21302;-67
2021/08/02 10:40:51;;;;;;;15.13;14.27;;;19.80;99.90;;;;;;5056530;28;20459;-68
2021/08/02 10:43:32;;;;;;;14.37;13.47;;;20.10;99.90;;;;;;5052637;28;20462;-67
2021/08/02 10:46:00;;;;;;;14.50;13.73;;;20.50;99.90;;;;;;5055725;28;20570;-68
2021/08/02 10:48:28;;;;;;;14.37;13.47;;;21.00;99.90;;;;;;5050206;28;20463;-67
2021/08/02 10:50:56;;;;;;;13.83;12.80;;;21.20;99.90;;;;;;5050864;28;20543;-67
2021/08/02 10:53:23;;;;;;;13.73;12.70;;;21.30;99.90;;;;;;5053822;28;21008;-66
2021/08/02 10:55:54;;;;;;;13.90;13.00;;;21.60;99.90;;;;;;5054910;28;20462;-67
2021/08/02 10:58:29;;;;;;;14.80;13.53;;;22.20;99.90;;;;;;5053240;28;20481;-67
2021/08/02 11:00:58;;;;;;;14.63;13.83;;;22.70;99.90;;;;;;5053685;28;20470;-67
2021/08/02 11:03:33;;;;;;;15.57;14.37;;;23.00;99.90;;;;;;5047171;28;20488;-69
2021/08/02 11:06:07;;;;;;;15.80;14.90;;;22.90;99.90;;;;;;5050665;28;20464;-67
2021/08/02 11:08:42;;;;;;;14.77;13.97;;;22.80;99.90;;;;;;5051293;28;20464;-68
2021/08/02 11:11:18;;;;;;;15.17;14.17;;;22.90;99.90;;;;;;5052619;28;20962;-69
2021/08/02 11:13:46;;;;;;;15.83;14.87;;;23.30;99.90;;;;;;5058327;28;20458;-69
2021/08/02 11:16:13;;;;;;;15.50;14.60;;;22.90;99.90;;;;;;5047606;28;20484;-69
2021/08/02 11:18:44;;;;;;;15.17;14.37;;;23.40;99.90;;;;;;5056843;28;20451;-69
2021/08/02 11:21:22;;;;;;;14.90;14.20;;;22.90;99.90;;;;;;5057809;28;20467;-68
2021/08/02 11:23:49;;;;;;;14.80;13.90;;;22.40;99.90;;;;;;5052555;28;20462;-67
2021/08/02 11:26:17;;;;;;;14.13;13.43;;;22.90;99.90;;;;;;5057648;28;20495;-67
2021/08/02 11:28:45;;;;;;;14.83;14.00;;;23.40;99.90;;;;;;5050424;28;20460;-67
2021/08/02 11:31:13;;;;;;;14.33;13.60;;;23.60;99.90;;;;;;5054668;28;20551;-68
2021/08/02 11:33:42;;;;;;;13.90;13.20;;;24.00;99.90;;;;;;5054354;28;20467;-68
2021/08/02 11:36:16;;;;;;;14.80;14.10;;;24.50;99.90;;;;;;5055269;28;20476;-68
2021/08/02 11:38:43;;;;;;;14.87;14.07;;;24.50;99.90;;;;;;5051302;28;21022;-69
2021/08/02 11:41:10;;;;;;;14.27;13.57;;;24.60;99.90;;;;;;5053998;28;20582;-69
2021/08/02 11:43:45;;;;;;;14.83;14.13;;;24.80;99.90;;;;;;5048378;28;20474;-68
2021/08/02 11:46:13;;;;;;;14.23;13.30;;;23.60;99.90;;;;;;5053101;28;20919;-68
2021/08/02 11:48:43;;;;;;;13.87;13.17;;;24.10;99.90;;;;;;5050579;28;20554;-70
2021/08/02 11:51:12;;;;;;;14.20;13.50;;;24.40;99.90;;;;;;5049096;28;20463;-67
2021/08/02 11:53:39;;;;;;;13.40;12.70;;;24.80;99.90;;;;;;5053669;28;20463;-70
2021/08/02 11:56:07;;;;;;;14.20;13.60;;;24.20;99.90;;;;;;5058095;28;20464;-69
2021/08/02 11:58:46;;;;;;;13.67;13.07;;;23.60;99.90;;;;;;5055058;28;20469;-69
2021/08/02 12:01:13;;;;;;;13.47;12.87;;;24.50;99.90;;;;;;5050199;28;20463;-68
2021/08/02 12:03:45;;;;;;;13.60;12.90;;;24.90;99.90;;;;;;5061388;28;20580;-69
2021/08/02 12:06:13;;;;;;;13.90;13.00;;;24.00;99.90;;;;;;5049692;28;20791;-68
2021/08/02 12:08:52;;;;;;;14.20;13.50;;;24.10;99.90;;;;;;5054312;28;20468;-68
2021/08/02 12:11:19;;;;;;;14.17;13.50;;;24.50;99.90;;;;;;5058550;28;20767;-68
2021/08/02 12:13:49;;;;;;;13.70;13.10;;;24.70;99.90;;;;;;5053103;28;20462;-70
2021/08/02 12:16:28;;;;;;;12.80;12.20;;;25.60;99.90;;;;;;5051975;28;20491;-69
2021/08/02 12:19:06;;;;;;;13.20;12.60;;;25.00;99.90;;;;;;5062290;28;20695;-68
2021/08/02 12:21:34;;;;;;;13.30;12.50;;;25.90;99.90;;;;;;5052521;28;20469;-69
2021/08/02 12:24:06;;;;;;;13.63;12.50;;;24.70;99.90;;;;;;5057189;28;20532;-69
2021/08/02 12:26:33;;;;;;;14.20;13.07;;;24.90;99.90;;;;;;5056054;28;20459;-70
2021/08/02 12:29:01;;;;;;;14.60;13.40;;;24.60;99.90;;;;;;5051623;28;21024;-68
2021/08/02 12:31:28;;;;;;;14.53;13.63;;;24.50;99.90;;;;;;5053292;28;20792;-69
2021/08/02 12:33:56;;;;;;;13.67;12.93;;;24.10;99.90;;;;;;5048989;28;20478;-69
2021/08/02 12:36:23;;;;;;;14.90;13.90;;;24.50;99.90;;;;;;5054767;28;20482;-68
2021/08/02 12:38:53;;;;;;;14.17;13.37;;;24.60;99.90;;;;;;5056318;28;20942;-68